sensor_id;sensor_type;location;lat;lon;timestamp;pressure;altitude;pressure_sealevel;temperature;humidity
80654;BME280;70020;45.524;10.240;2024-03-06T00:00:06;99724.44;;;15.97;59.27
80654;BME280;70020;45.524;10.240;2024-03-06T00:02:34;99722.94;;;15.95;58.96
80654;BME280;70020;45.524;10.240;2024-03-06T00:05:01;99728.50;;;15.92;59.54
80654;BME280;70020;45.524;10.240;2024-03-06T00:07:27;99738.84;;;15.84;59.86
80654;BME280;70020;45.524;10.240;2024-03-06T00:09:52;99743.16;;;15.75;60.70
80654;BME280;70020;45.524;10.240;2024-03-06T00:12:23;99725.19;;;15.72;61.12
80654;BME280;70020;45.524;10.240;2024-03-06T00:14:48;99734.44;;;15.66;60.89
80654;BME280;70020;45.524;10.240;2024-03-06T00:17:15;99734.53;;;15.75;60.26
80654;BME280;70020;45.524;10.240;2024-03-06T00:19:40;99728.03;;;15.61;59.68
80654;BME280;70020;45.524;10.240;2024-03-06T00:22:07;99729.38;;;15.47;59.85
80654;BME280;70020;45.524;10.240;2024-03-06T00:24:33;99726.53;;;15.58;59.31
80654;BME280;70020;45.524;10.240;2024-03-06T00:26:59;99729.97;;;15.59;59.36
80654;BME280;70020;45.524;10.240;2024-03-06T00:29:24;99724.81;;;15.49;59.13
80654;BME280;70020;45.524;10.240;2024-03-06T00:31:50;99727.88;;;15.45;58.63
80654;BME280;70020;45.524;10.240;2024-03-06T00:34:15;99724.50;;;15.52;58.32
80654;BME280;70020;45.524;10.240;2024-03-06T00:36:42;99720.78;;;15.55;58.04
80654;BME280;70020;45.524;10.240;2024-03-06T00:39:07;99717.59;;;15.61;57.79
80654;BME280;70020;45.524;10.240;2024-03-06T00:41:34;99711.19;;;15.55;57.89
80654;BME280;70020;45.524;10.240;2024-03-06T00:44:01;99711.84;;;15.57;57.91
80654;BME280;70020;45.524;10.240;2024-03-06T00:46:27;99720.34;;;15.59;57.39
80654;BME280;70020;45.524;10.240;2024-03-06T00:48:53;99723.31;;;15.64;57.77
80654;BME280;70020;45.524;10.240;2024-03-06T00:51:19;99727.50;;;15.57;58.88
80654;BME280;70020;45.524;10.240;2024-03-06T00:53:45;99721.09;;;15.70;57.78
80654;BME280;70020;45.524;10.240;2024-03-06T00:56:10;99724.09;;;15.75;57.70
80654;BME280;70020;45.524;10.240;2024-03-06T00:58:37;99730.78;;;15.77;59.43
80654;BME280;70020;45.524;10.240;2024-03-06T01:01:02;99734.53;;;15.75;60.62
80654;BME280;70020;45.524;10.240;2024-03-06T01:03:29;99728.03;;;15.61;61.94
80654;BME280;70020;45.524;10.240;2024-03-06T01:05:55;99737.47;;;15.62;62.69
80654;BME280;70020;45.524;10.240;2024-03-06T01:08:24;99736.59;;;15.53;63.26
80654;BME280;70020;45.524;10.240;2024-03-06T01:10:52;99739.47;;;15.50;64.43
80654;BME280;70020;45.524;10.240;2024-03-06T01:13:22;99733.78;;;15.37;64.20
80654;BME280;70020;45.524;10.240;2024-03-06T01:15:48;99731.72;;;15.31;63.64
80654;BME280;70020;45.524;10.240;2024-03-06T01:18:14;99731.34;;;15.26;64.51
80654;BME280;70020;45.524;10.240;2024-03-06T01:20:40;99732.16;;;15.27;64.30
80654;BME280;70020;45.524;10.240;2024-03-06T01:23:07;99733.16;;;15.26;64.00
80654;BME280;70020;45.524;10.240;2024-03-06T01:25:32;99733.00;;;15.27;64.14
80654;BME280;70020;45.524;10.240;2024-03-06T01:27:58;99743.41;;;15.27;64.25
80654;BME280;70020;45.524;10.240;2024-03-06T01:30:24;99739.75;;;15.20;65.32
80654;BME280;70020;45.524;10.240;2024-03-06T01:32:49;99745.50;;;15.24;65.42
80654;BME280;70020;45.524;10.240;2024-03-06T01:35:15;99743.31;;;15.19;65.93
80654;BME280;70020;45.524;10.240;2024-03-06T01:37:41;99746.47;;;15.23;65.62
80654;BME280;70020;45.524;10.240;2024-03-06T01:40:08;99752.97;;;15.09;66.63
80654;BME280;70020;45.524;10.240;2024-03-06T01:42:34;99752.44;;;15.06;66.58
80654;BME280;70020;45.524;10.240;2024-03-06T01:45:01;99758.03;;;15.11;66.71
80654;BME280;70020;45.524;10.240;2024-03-06T01:47:27;99751.06;;;15.11;66.38
80654;BME280;70020;45.524;10.240;2024-03-06T01:49:54;99752.66;;;15.12;66.64
80654;BME280;70020;45.524;10.240;2024-03-06T01:52:21;99747.47;;;15.12;66.95
80654;BME280;70020;45.524;10.240;2024-03-06T01:54:48;99747.47;;;15.12;66.75
80654;BME280;70020;45.524;10.240;2024-03-06T01:57:15;99757.09;;;15.12;66.89
80654;BME280;70020;45.524;10.240;2024-03-06T01:59:42;99767.50;;;15.12;67.38
80654;BME280;70020;45.524;10.240;2024-03-06T02:02:09;99769.41;;;15.10;67.09
80654;BME280;70020;45.524;10.240;2024-03-06T02:04:39;99774.09;;;15.06;66.87
80654;BME280;70020;45.524;10.240;2024-03-06T02:07:08;99772.56;;;15.13;67.19
80654;BME280;70020;45.524;10.240;2024-03-06T02:09:36;99771.63;;;15.14;66.71
80654;BME280;70020;45.524;10.240;2024-03-06T02:12:01;99775.19;;;15.13;67.21
80654;BME280;70020;45.524;10.240;2024-03-06T02:14:28;99784.13;;;15.01;66.86
80654;BME280;70020;45.524;10.240;2024-03-06T02:16:54;99788.13;;;14.86;66.72
80654;BME280;70020;45.524;10.240;2024-03-06T02:19:20;99784.31;;;14.90;67.35
80654;BME280;70020;45.524;10.240;2024-03-06T02:21:46;99785.84;;;14.83;67.63
80654;BME280;70020;45.524;10.240;2024-03-06T02:24:12;99782.16;;;14.76;67.62
80654;BME280;70020;45.524;10.240;2024-03-06T02:26:38;99782.19;;;14.66;68.19
80654;BME280;70020;45.524;10.240;2024-03-06T02:29:03;99776.44;;;14.34;67.61
80654;BME280;70020;45.524;10.240;2024-03-06T02:31:31;99787.13;;;14.21;68.34
80654;BME280;70020;45.524;10.240;2024-03-06T02:33:56;99784.94;;;14.26;68.86
80654;BME280;70020;45.524;10.240;2024-03-06T02:36:24;99790.97;;;14.46;67.94
80654;BME280;70020;45.524;10.240;2024-03-06T02:38:50;99777.09;;;14.55;67.90
80654;BME280;70020;45.524;10.240;2024-03-06T02:41:16;99782.88;;;14.59;67.19
80654;BME280;70020;45.524;10.240;2024-03-06T02:43:43;99783.81;;;14.58;67.76
80654;BME280;70020;45.524;10.240;2024-03-06T02:46:09;99784.25;;;14.44;67.84
80654;BME280;70020;45.524;10.240;2024-03-06T02:48:34;99782.72;;;14.51;68.46
80654;BME280;70020;45.524;10.240;2024-03-06T02:51:01;99788.75;;;14.51;68.27
80654;BME280;70020;45.524;10.240;2024-03-06T02:53:27;99788.78;;;14.32;68.00
80654;BME280;70020;45.524;10.240;2024-03-06T02:55:53;99783.72;;;14.50;67.99
80654;BME280;70020;45.524;10.240;2024-03-06T02:58:19;99789.03;;;14.48;68.23
80654;BME280;70020;45.524;10.240;2024-03-06T03:00:44;99796.47;;;14.43;67.53
80654;BME280;70020;45.524;10.240;2024-03-06T03:03:10;99793.44;;;14.38;68.24
80654;BME280;70020;45.524;10.240;2024-03-06T03:05:39;99796.06;;;14.38;68.01
80654;BME280;70020;45.524;10.240;2024-03-06T03:08:08;99789.31;;;14.55;68.11
80654;BME280;70020;45.524;10.240;2024-03-06T03:10:34;99786.59;;;14.47;68.26
80654;BME280;70020;45.524;10.240;2024-03-06T03:13:01;99793.97;;;14.42;67.64
80654;BME280;70020;45.524;10.240;2024-03-06T03:15:26;99788.94;;;14.30;67.98
80654;BME280;70020;45.524;10.240;2024-03-06T03:17:52;99790.66;;;14.20;68.51
80654;BME280;70020;45.524;10.240;2024-03-06T03:20:18;99780.16;;;14.22;68.54
80654;BME280;70020;45.524;10.240;2024-03-06T03:22:44;99776.16;;;14.08;68.96
80654;BME280;70020;45.524;10.240;2024-03-06T03:25:10;99772.72;;;14.17;68.98
80654;BME280;70020;45.524;10.240;2024-03-06T03:27:40;99771.78;;;14.09;67.95
80654;BME280;70020;45.524;10.240;2024-03-06T03:30:09;99768.50;;;13.97;68.26
80654;BME280;70020;45.524;10.240;2024-03-06T03:32:35;99770.53;;;14.03;68.23
80654;BME280;70020;45.524;10.240;2024-03-06T03:35:01;99777.38;;;13.95;67.38
80654;BME280;70020;45.524;10.240;2024-03-06T03:37:27;99782.44;;;13.87;68.28
80654;BME280;70020;45.524;10.240;2024-03-06T03:39:53;99778.03;;;13.78;67.72
80654;BME280;70020;45.524;10.240;2024-03-06T03:42:19;99783.78;;;13.72;68.52
80654;BME280;70020;45.524;10.240;2024-03-06T03:44:45;99778.16;;;13.67;66.98
80654;BME280;70020;45.524;10.240;2024-03-06T03:47:11;99772.13;;;13.66;66.60
80654;BME280;70020;45.524;10.240;2024-03-06T03:49:38;99771.91;;;13.79;66.05
80654;BME280;70020;45.524;10.240;2024-03-06T03:52:04;99778.19;;;13.76;66.28
80654;BME280;70020;45.524;10.240;2024-03-06T03:54:30;99768.47;;;13.88;66.57
80654;BME280;70020;45.524;10.240;2024-03-06T03:56:56;99769.16;;;13.80;65.41
80654;BME280;70020;45.524;10.240;2024-03-06T03:59:21;99767.66;;;13.87;65.45
80654;BME280;70020;45.524;10.240;2024-03-06T04:01:47;99775.31;;;13.79;66.24
80654;BME280;70020;45.524;10.240;2024-03-06T04:04:14;99775.03;;;13.73;66.49
80654;BME280;70020;45.524;10.240;2024-03-06T04:06:39;99774.34;;;13.71;66.60
80654;BME280;70020;45.524;10.240;2024-03-06T04:09:06;99779.41;;;13.91;66.93
80654;BME280;70020;45.524;10.240;2024-03-06T04:11:33;99778.88;;;13.78;67.21
80654;BME280;70020;45.524;10.240;2024-03-06T04:14:01;99779.41;;;13.72;68.15
80654;BME280;70020;45.524;10.240;2024-03-06T04:16:27;99779.66;;;13.59;68.12
80654;BME280;70020;45.524;10.240;2024-03-06T04:18:53;99785.13;;;13.66;68.43
80654;BME280;70020;45.524;10.240;2024-03-06T04:21:19;99783.25;;;13.78;68.09
80654;BME280;70020;45.524;10.240;2024-03-06T04:23:44;99784.06;;;13.78;67.79
80654;BME280;70020;45.524;10.240;2024-03-06T04:26:10;99786.84;;;13.86;67.57
80654;BME280;70020;45.524;10.240;2024-03-06T04:28:36;99795.56;;;13.85;67.74
80654;BME280;70020;45.524;10.240;2024-03-06T04:31:02;99803.38;;;13.85;67.47
80654;BME280;70020;45.524;10.240;2024-03-06T04:33:28;99807.06;;;13.83;67.71
80654;BME280;70020;45.524;10.240;2024-03-06T04:35:54;99818.97;;;13.85;67.16
80654;BME280;70020;45.524;10.240;2024-03-06T04:38:20;99809.94;;;13.89;67.07
80654;BME280;70020;45.524;10.240;2024-03-06T04:40:46;99819.81;;;13.95;66.69
80654;BME280;70020;45.524;10.240;2024-03-06T04:43:12;99826.53;;;13.88;67.49
80654;BME280;70020;45.524;10.240;2024-03-06T04:45:38;99827.06;;;13.92;68.27
80654;BME280;70020;45.524;10.240;2024-03-06T04:48:05;99834.19;;;13.90;66.91
80654;BME280;70020;45.524;10.240;2024-03-06T04:50:30;99829.25;;;13.87;66.43
80654;BME280;70020;45.524;10.240;2024-03-06T04:52:56;99831.31;;;13.83;66.41
80654;BME280;70020;45.524;10.240;2024-03-06T04:55:23;99833.63;;;13.86;66.11
80654;BME280;70020;45.524;10.240;2024-03-06T04:57:51;99835.00;;;13.81;66.15
80654;BME280;70020;45.524;10.240;2024-03-06T05:00:18;99837.00;;;13.77;65.97
80654;BME280;70020;45.524;10.240;2024-03-06T05:02:43;99826.72;;;13.66;65.92
80654;BME280;70020;45.524;10.240;2024-03-06T05:05:09;99829.59;;;13.63;66.46
80654;BME280;70020;45.524;10.240;2024-03-06T05:07:34;99827.41;;;13.68;65.88
80654;BME280;70020;45.524;10.240;2024-03-06T05:10:01;99833.97;;;13.53;67.11
80654;BME280;70020;45.524;10.240;2024-03-06T05:12:27;99834.75;;;13.53;66.78
80654;BME280;70020;45.524;10.240;2024-03-06T05:14:53;99846.78;;;13.45;67.24
80654;BME280;70020;45.524;10.240;2024-03-06T05:17:20;99846.09;;;13.43;67.46
80654;BME280;70020;45.524;10.240;2024-03-06T05:19:46;99840.19;;;13.41;67.49
80654;BME280;70020;45.524;10.240;2024-03-06T05:22:16;99835.94;;;13.40;66.66
80654;BME280;70020;45.524;10.240;2024-03-06T05:24:43;99827.47;;;13.38;67.03
80654;BME280;70020;45.524;10.240;2024-03-06T05:27:08;99834.44;;;13.37;66.97
80654;BME280;70020;45.524;10.240;2024-03-06T05:29:35;99827.16;;;13.31;66.96
80654;BME280;70020;45.524;10.240;2024-03-06T05:32:04;99830.16;;;13.27;66.68
80654;BME280;70020;45.524;10.240;2024-03-06T05:34:30;99828.88;;;13.21;66.93
80654;BME280;70020;45.524;10.240;2024-03-06T05:36:56;99836.13;;;13.18;67.06
80654;BME280;70020;45.524;10.240;2024-03-06T05:39:22;99837.22;;;13.15;67.15
80654;BME280;70020;45.524;10.240;2024-03-06T05:41:49;99827.47;;;13.08;66.90
80654;BME280;70020;45.524;10.240;2024-03-06T05:44:15;99838.78;;;13.07;66.85
80654;BME280;70020;45.524;10.240;2024-03-06T05:46:41;99842.81;;;12.99;67.33
80654;BME280;70020;45.524;10.240;2024-03-06T05:49:07;99854.81;;;12.91;67.10
80654;BME280;70020;45.524;10.240;2024-03-06T05:51:33;99849.94;;;12.77;68.14
80654;BME280;70020;45.524;10.240;2024-03-06T05:53:58;99859.78;;;12.62;68.16
80654;BME280;70020;45.524;10.240;2024-03-06T05:56:24;99861.69;;;12.60;68.71
80654;BME280;70020;45.524;10.240;2024-03-06T05:58:50;99860.94;;;12.69;68.23
80654;BME280;70020;45.524;10.240;2024-03-06T06:01:16;99867.28;;;12.76;68.02
80654;BME280;70020;45.524;10.240;2024-03-06T06:03:48;99868.59;;;12.71;68.77
80654;BME280;70020;45.524;10.240;2024-03-06T06:06:15;99879.03;;;12.80;67.97
80654;BME280;70020;45.524;10.240;2024-03-06T06:08:41;99883.09;;;12.73;68.11
80654;BME280;70020;45.524;10.240;2024-03-06T06:11:07;99880.72;;;12.81;68.35
80654;BME280;70020;45.524;10.240;2024-03-06T06:13:33;99883.06;;;12.84;67.88
80654;BME280;70020;45.524;10.240;2024-03-06T06:16:00;99880.78;;;12.91;68.09
80654;BME280;70020;45.524;10.240;2024-03-06T06:18:28;99881.59;;;12.91;67.70
80654;BME280;70020;45.524;10.240;2024-03-06T06:20:54;99885.91;;;12.81;69.64
80654;BME280;70020;45.524;10.240;2024-03-06T06:23:19;99892.31;;;12.98;71.13
80654;BME280;70020;45.524;10.240;2024-03-06T06:25:45;99890.25;;;13.02;68.35
80654;BME280;70020;45.524;10.240;2024-03-06T06:28:11;99896.63;;;13.09;68.02
80654;BME280;70020;45.524;10.240;2024-03-06T06:30:40;99896.03;;;13.05;68.19
80654;BME280;70020;45.524;10.240;2024-03-06T06:33:06;99902.91;;;13.27;68.16
80654;BME280;70020;45.524;10.240;2024-03-06T06:35:31;99906.28;;;13.18;67.51
80654;BME280;70020;45.524;10.240;2024-03-06T06:37:57;99901.50;;;13.43;67.75
80654;BME280;70020;45.524;10.240;2024-03-06T06:40:23;99908.25;;;13.55;67.01
80654;BME280;70020;45.524;10.240;2024-03-06T06:42:49;99906.34;;;13.57;66.65
80654;BME280;70020;45.524;10.240;2024-03-06T06:45:16;99902.53;;;13.61;67.63
80654;BME280;70020;45.524;10.240;2024-03-06T06:47:42;99898.34;;;13.49;65.34
80654;BME280;70020;45.524;10.240;2024-03-06T06:50:08;99903.91;;;13.65;66.10
80654;BME280;70020;45.524;10.240;2024-03-06T06:52:35;99909.91;;;13.66;65.38
80654;BME280;70020;45.524;10.240;2024-03-06T06:55:01;99916.22;;;13.63;65.57
80654;BME280;70020;45.524;10.240;2024-03-06T06:57:27;99919.94;;;13.71;63.81
80654;BME280;70020;45.524;10.240;2024-03-06T06:59:52;99913.19;;;13.89;61.09
80654;BME280;70020;45.524;10.240;2024-03-06T07:02:18;99915.53;;;14.01;60.20
80654;BME280;70020;45.524;10.240;2024-03-06T07:04:44;99920.63;;;14.12;60.43
80654;BME280;70020;45.524;10.240;2024-03-06T07:07:10;99921.59;;;14.21;59.74
80654;BME280;70020;45.524;10.240;2024-03-06T07:09:36;99924.94;;;14.32;60.56
80654;BME280;70020;45.524;10.240;2024-03-06T07:12:02;99929.22;;;14.43;59.50
80654;BME280;70020;45.524;10.240;2024-03-06T07:14:28;99933.47;;;14.54;59.94
80654;BME280;70020;45.524;10.240;2024-03-06T07:16:54;99937.59;;;14.66;59.81
80654;BME280;70020;45.524;10.240;2024-03-06T07:19:19;99931.81;;;14.72;59.40
80654;BME280;70020;45.524;10.240;2024-03-06T07:21:48;99950.59;;;14.75;57.86
80654;BME280;70020;45.524;10.240;2024-03-06T07:24:14;99942.38;;;14.89;57.54
80654;BME280;70020;45.524;10.240;2024-03-06T07:26:40;99948.13;;;14.93;59.92
80654;BME280;70020;45.524;10.240;2024-03-06T07:29:05;99952.13;;;14.78;59.21
80654;BME280;70020;45.524;10.240;2024-03-06T07:31:38;99952.81;;;14.89;59.30
80654;BME280;70020;45.524;10.240;2024-03-06T07:34:04;99963.75;;;15.02;57.12
80654;BME280;70020;45.524;10.240;2024-03-06T07:36:32;99963.91;;;15.11;57.50
80654;BME280;70020;45.524;10.240;2024-03-06T07:38:57;99964.31;;;15.16;57.30
80654;BME280;70020;45.524;10.240;2024-03-06T07:41:26;99975.00;;;15.22;58.51
80654;BME280;70020;45.524;10.240;2024-03-06T07:43:52;99971.56;;;15.12;58.17
80654;BME280;70020;45.524;10.240;2024-03-06T07:46:17;99976.25;;;15.18;58.71
80654;BME280;70020;45.524;10.240;2024-03-06T07:48:43;99976.25;;;15.18;59.19
80654;BME280;70020;45.524;10.240;2024-03-06T07:51:12;99979.25;;;15.23;59.06
80654;BME280;70020;45.524;10.240;2024-03-06T07:53:37;99979.69;;;15.19;59.34
80654;BME280;70020;45.524;10.240;2024-03-06T07:56:04;99979.38;;;15.31;59.56
80654;BME280;70020;45.524;10.240;2024-03-06T07:58:30;99982.66;;;15.33;58.95
80654;BME280;70020;45.524;10.240;2024-03-06T08:00:56;99979.50;;;15.39;58.44
80654;BME280;70020;45.524;10.240;2024-03-06T08:03:22;99981.84;;;15.52;58.33
80654;BME280;70020;45.524;10.240;2024-03-06T08:05:52;99993.63;;;15.56;58.73
80654;BME280;70020;45.524;10.240;2024-03-06T08:08:21;99986.47;;;15.68;59.13
80654;BME280;70020;45.524;10.240;2024-03-06T08:10:46;99985.22;;;15.72;58.36
80654;BME280;70020;45.524;10.240;2024-03-06T08:13:13;99996.00;;;15.86;58.01
80654;BME280;70020;45.524;10.240;2024-03-06T08:15:39;100000.72;;;15.83;57.78
80654;BME280;70020;45.524;10.240;2024-03-06T08:18:05;100002.25;;;15.76;60.12
80654;BME280;70020;45.524;10.240;2024-03-06T08:20:34;100005.94;;;15.83;60.38
80654;BME280;70020;45.524;10.240;2024-03-06T08:23:00;100011.94;;;15.83;60.70
80654;BME280;70020;45.524;10.240;2024-03-06T08:25:26;100021.59;;;15.83;60.80
80654;BME280;70020;45.524;10.240;2024-03-06T08:27:51;100021.41;;;15.94;60.55
80654;BME280;70020;45.524;10.240;2024-03-06T08:30:24;100028.97;;;15.87;61.51
80654;BME280;70020;45.524;10.240;2024-03-06T08:32:50;100034.91;;;15.80;61.42
80654;BME280;70020;45.524;10.240;2024-03-06T08:35:16;100036.88;;;15.49;61.97
80654;BME280;70020;45.524;10.240;2024-03-06T08:37:44;100035.63;;;15.34;62.70
80654;BME280;70020;45.524;10.240;2024-03-06T08:40:10;100038.53;;;15.21;63.00
80654;BME280;70020;45.524;10.240;2024-03-06T08:42:42;100044.00;;;15.18;62.63
80654;BME280;70020;45.524;10.240;2024-03-06T08:45:08;100049.63;;;15.23;63.16
80654;BME280;70020;45.524;10.240;2024-03-06T08:47:34;100047.13;;;14.93;63.61
80654;BME280;70020;45.524;10.240;2024-03-06T08:50:00;100047.13;;;14.74;64.04
80654;BME280;70020;45.524;10.240;2024-03-06T08:52:28;100063.25;;;14.68;64.76
80654;BME280;70020;45.524;10.240;2024-03-06T08:54:53;100057.88;;;14.50;64.79
80654;BME280;70020;45.524;10.240;2024-03-06T08:57:19;100061.00;;;14.44;65.65
80654;BME280;70020;45.524;10.240;2024-03-06T08:59:46;100070.91;;;14.29;66.33
80654;BME280;70020;45.524;10.240;2024-03-06T09:02:14;100076.91;;;14.20;67.24
80654;BME280;70020;45.524;10.240;2024-03-06T09:04:40;100077.00;;;14.09;67.33
80654;BME280;70020;45.524;10.240;2024-03-06T09:07:06;100082.03;;;14.31;67.20
80654;BME280;70020;45.524;10.240;2024-03-06T09:09:31;100083.38;;;14.26;66.83
80654;BME280;70020;45.524;10.240;2024-03-06T09:12:02;100087.56;;;14.17;66.72
80654;BME280;70020;45.524;10.240;2024-03-06T09:14:29;100090.50;;;14.03;67.80
80654;BME280;70020;45.524;10.240;2024-03-06T09:16:55;100097.44;;;13.93;67.73
80654;BME280;70020;45.524;10.240;2024-03-06T09:19:21;100103.69;;;14.11;68.28
80654;BME280;70020;45.524;10.240;2024-03-06T09:21:48;100113.50;;;13.98;67.87
80654;BME280;70020;45.524;10.240;2024-03-06T09:24:13;100114.13;;;13.91;67.52
80654;BME280;70020;45.524;10.240;2024-03-06T09:26:39;100121.72;;;14.03;67.30
80654;BME280;70020;45.524;10.240;2024-03-06T09:29:05;100115.94;;;14.20;67.37
80654;BME280;70020;45.524;10.240;2024-03-06T09:31:31;100115.16;;;14.29;67.72
80654;BME280;70020;45.524;10.240;2024-03-06T09:33:57;100117.44;;;14.44;67.45
80654;BME280;70020;45.524;10.240;2024-03-06T09:36:23;100127.59;;;14.47;65.83
80654;BME280;70020;45.524;10.240;2024-03-06T09:38:49;100127.53;;;14.67;67.68
80654;BME280;70020;45.524;10.240;2024-03-06T09:41:14;100125.13;;;14.85;65.83
80654;BME280;70020;45.524;10.240;2024-03-06T09:43:40;100129.81;;;14.91;65.85
80654;BME280;70020;45.524;10.240;2024-03-06T09:46:08;100122.56;;;14.94;66.18
80654;BME280;70020;45.524;10.240;2024-03-06T09:48:35;100119.69;;;14.97;65.24
80654;BME280;70020;45.524;10.240;2024-03-06T09:51:10;100122.59;;;15.14;65.68
80654;BME280;70020;45.524;10.240;2024-03-06T09:53:38;100123.28;;;15.16;64.60
80654;BME280;70020;45.524;10.240;2024-03-06T09:56:05;100129.06;;;15.29;63.37
80654;BME280;70020;45.524;10.240;2024-03-06T09:58:31;100132.75;;;15.36;64.27
80654;BME280;70020;45.524;10.240;2024-03-06T10:00:58;100131.84;;;15.46;63.46
80654;BME280;70020;45.524;10.240;2024-03-06T10:03:25;100128.84;;;15.51;64.04
80654;BME280;70020;45.524;10.240;2024-03-06T10:05:51;100125.09;;;15.44;63.91
80654;BME280;70020;45.524;10.240;2024-03-06T10:08:19;100121.41;;;15.46;62.15
80654;BME280;70020;45.524;10.240;2024-03-06T10:10:47;100129.47;;;15.43;62.36
80654;BME280;70020;45.524;10.240;2024-03-06T10:13:16;100130.84;;;15.28;63.70
80654;BME280;70020;45.524;10.240;2024-03-06T10:15:42;100130.06;;;15.47;64.61
80654;BME280;70020;45.524;10.240;2024-03-06T10:18:20;100128.38;;;15.36;64.35
80654;BME280;70020;45.524;10.240;2024-03-06T10:20:46;100117.72;;;15.49;62.36
80654;BME280;70020;45.524;10.240;2024-03-06T10:23:12;100124.97;;;15.64;63.38
80654;BME280;70020;45.524;10.240;2024-03-06T10:25:38;100117.69;;;15.87;61.64
80654;BME280;70020;45.524;10.240;2024-03-06T10:28:08;100128.16;;;15.58;62.16
80654;BME280;70020;45.524;10.240;2024-03-06T10:30:35;100130.06;;;15.47;62.92
80654;BME280;70020;45.524;10.240;2024-03-06T10:33:04;100128.56;;;15.73;62.63
80654;BME280;70020;45.524;10.240;2024-03-06T10:35:37;100133.06;;;15.81;63.30
80654;BME280;70020;45.524;10.240;2024-03-06T10:38:04;100136.75;;;15.88;61.33
80654;BME280;70020;45.524;10.240;2024-03-06T10:40:32;100140.09;;;15.80;60.58
80654;BME280;70020;45.524;10.240;2024-03-06T10:43:02;100136.91;;;15.77;60.48
80654;BME280;70020;45.524;10.240;2024-03-06T10:48:15;100136.38;;;15.83;61.17
80654;BME280;70020;45.524;10.240;2024-03-06T10:50:43;100137.34;;;15.82;61.99
80654;BME280;70020;45.524;10.240;2024-03-06T10:53:14;100129.78;;;15.79;62.02
80654;BME280;70020;45.524;10.240;2024-03-06T10:55:42;100143.13;;;15.76;60.92
80654;BME280;70020;45.524;10.240;2024-03-06T10:58:10;100139.78;;;15.83;60.69
80654;BME280;70020;45.524;10.240;2024-03-06T11:00:40;100147.09;;;15.80;61.49
80654;BME280;70020;45.524;10.240;2024-03-06T11:03:07;100137.59;;;15.79;60.91
80654;BME280;70020;45.524;10.240;2024-03-06T11:05:40;100137.06;;;15.85;59.75
80654;BME280;70020;45.524;10.240;2024-03-06T11:08:11;100139.41;;;15.78;59.88
80654;BME280;70020;45.524;10.240;2024-03-06T11:10:39;100132.63;;;15.95;60.10
80654;BME280;70020;45.524;10.240;2024-03-06T11:13:21;100136.88;;;16.15;61.17
80654;BME280;70020;45.524;10.240;2024-03-06T11:15:51;100136.72;;;16.16;60.89
80654;BME280;70020;45.524;10.240;2024-03-06T11:23:26;100132.34;;;15.98;60.64
80654;BME280;70020;45.524;10.240;2024-03-06T11:28:37;100127.94;;;16.17;60.85
80654;BME280;70020;45.524;10.240;2024-03-06T11:31:04;100128.34;;;16.13;60.24
80654;BME280;70020;45.524;10.240;2024-03-06T11:33:42;100125.75;;;16.13;60.59
80654;BME280;70020;45.524;10.240;2024-03-06T11:36:23;100126.38;;;16.34;60.20
80654;BME280;70020;45.524;10.240;2024-03-06T11:41:19;100128.94;;;16.53;60.19
80654;BME280;70020;45.524;10.240;2024-03-06T11:43:45;100130.97;;;16.59;60.46
80654;BME280;70020;45.524;10.240;2024-03-06T11:46:11;100131.41;;;16.55;59.52
80654;BME280;70020;45.524;10.240;2024-03-06T11:48:37;100129.31;;;16.68;59.32
80654;BME280;70020;45.524;10.240;2024-03-06T11:51:03;100130.88;;;16.78;58.91
80654;BME280;70020;45.524;10.240;2024-03-06T11:53:30;100136.44;;;16.93;58.95
80654;BME280;70020;45.524;10.240;2024-03-06T11:55:56;100139.25;;;17.09;58.66
80654;BME280;70020;45.524;10.240;2024-03-06T11:58:22;100134.34;;;17.24;57.94
80654;BME280;70020;45.524;10.240;2024-03-06T12:00:49;100121.09;;;17.25;56.91
80654;BME280;70020;45.524;10.240;2024-03-06T12:03:15;100123.88;;;17.24;57.97
80654;BME280;70020;45.524;10.240;2024-03-06T12:05:41;100115.38;;;17.22;57.33
80654;BME280;70020;45.524;10.240;2024-03-06T12:08:07;100116.94;;;17.15;57.36
80654;BME280;70020;45.524;10.240;2024-03-06T12:10:38;100113.72;;;17.21;56.92
80654;BME280;70020;45.524;10.240;2024-03-06T12:13:07;100110.13;;;17.22;56.16
80654;BME280;70020;45.524;10.240;2024-03-06T12:15:33;100104.44;;;17.26;56.04
80654;BME280;70020;45.524;10.240;2024-03-06T12:17:59;100110.41;;;17.19;54.79
80654;BME280;70020;45.524;10.240;2024-03-06T12:20:25;100115.38;;;17.22;54.12
80654;BME280;70020;45.524;10.240;2024-03-06T12:22:54;100103.91;;;17.23;53.55
80654;BME280;70020;45.524;10.240;2024-03-06T12:25:25;100102.00;;;17.25;55.34
80654;BME280;70020;45.524;10.240;2024-03-06T12:27:53;100102.97;;;17.24;56.82
80654;BME280;70020;45.524;10.240;2024-03-06T12:30:20;100107.81;;;17.19;55.09
80654;BME280;70020;45.524;10.240;2024-03-06T12:32:59;100112.97;;;17.11;55.42
80654;BME280;70020;45.524;10.240;2024-03-06T12:35:26;100117.53;;;17.26;62.67
80654;BME280;70020;45.524;10.240;2024-03-06T12:37:52;100124.63;;;17.34;57.12
80654;BME280;70020;45.524;10.240;2024-03-06T12:40:21;100121.59;;;17.11;57.10
80654;BME280;70020;45.524;10.240;2024-03-06T12:42:47;100118.31;;;16.91;54.76
80654;BME280;70020;45.524;10.240;2024-03-06T12:45:14;100117.16;;;16.76;54.28
80654;BME280;70020;45.524;10.240;2024-03-06T12:47:44;100111.81;;;16.68;53.84
80654;BME280;70020;45.524;10.240;2024-03-06T12:50:11;100113.78;;;16.57;52.92
80654;BME280;70020;45.524;10.240;2024-03-06T12:52:37;100118.22;;;16.56;53.03
80654;BME280;70020;45.524;10.240;2024-03-06T12:55:03;100118.50;;;16.53;52.94